createdAt,value
2017-04-18T00:00:07.147Z,2.90
2017-04-18T00:01:05.170Z,2.58
2017-04-18T00:02:03.064Z,1.87
2017-04-18T00:03:00.946Z,2.78
2017-04-18T00:03:59.211Z,2.42
2017-04-18T00:04:57.247Z,2.57
2017-04-18T00:05:55.689Z,2.80
2017-04-18T00:06:53.791Z,2.70
2017-04-18T00:07:51.802Z,2.60
2017-04-18T00:08:49.765Z,2.90
2017-04-18T00:09:47.702Z,2.57
2017-04-18T00:10:45.658Z,2.50
2017-04-18T00:11:43.823Z,2.82
2017-04-18T00:12:41.742Z,3.10
2017-04-18T00:13:39.230Z,2.92
2017-04-18T00:14:37.110Z,2.83
2017-04-18T00:15:35.265Z,2.65
2017-04-18T00:16:33.126Z,3.95
2017-04-18T00:17:31.414Z,2.88
2017-04-18T00:18:29.325Z,2.93
2017-04-18T00:19:27.518Z,2.58
2017-04-18T00:20:25.671Z,2.68
2017-04-18T00:21:23.545Z,2.62
2017-04-18T00:22:21.443Z,3.10
2017-04-18T00:23:19.311Z,2.65
2017-04-18T00:24:17.211Z,2.38
2017-04-18T00:25:15.164Z,2.50
2017-04-18T00:26:13.039Z,2.85
2017-04-18T00:27:11.266Z,2.67
2017-04-18T00:28:09.111Z,2.33
2017-04-18T00:29:06.962Z,2.52
2017-04-18T00:30:04.890Z,2.80
2017-04-18T00:31:02.827Z,2.50
2017-04-18T00:32:00.710Z,2.70
2017-04-18T00:32:58.576Z,2.57
2017-04-18T00:33:56.650Z,2.70
2017-04-18T00:34:54.533Z,3.13
2017-04-18T00:35:52.501Z,2.95
2017-04-18T00:36:50.353Z,2.57
2017-04-18T00:37:48.271Z,2.88
2017-04-18T00:38:46.169Z,2.53
2017-04-18T00:39:44.042Z,2.68
2017-04-18T00:40:41.897Z,2.62
2017-04-18T00:41:39.821Z,2.80
2017-04-18T00:42:37.722Z,3.38
2017-04-18T00:43:35.585Z,3.05
2017-04-18T00:44:33.482Z,3.05
2017-04-18T00:45:31.323Z,3.20
2017-04-18T00:46:29.207Z,2.95
2017-04-18T00:47:27.146Z,3.70
2017-04-18T00:48:25.589Z,2.48
2017-04-18T00:49:23.442Z,3.45
2017-04-18T00:50:21.324Z,3.40
2017-04-18T00:51:19.222Z,3.05
2017-04-18T00:52:17.066Z,2.92
2017-04-18T00:53:15.303Z,3.23
2017-04-18T00:54:13.160Z,3.55
2017-04-18T00:55:11.414Z,2.75
2017-04-18T00:56:09.292Z,3.00
2017-04-18T00:57:07.257Z,2.88
2017-04-18T00:58:05.130Z,3.15
2017-04-18T00:59:03.067Z,3.60
2017-04-18T01:00:00.951Z,3.43
2017-04-18T01:00:58.437Z,3.18
2017-04-18T01:01:56.296Z,2.97
2017-04-18T01:02:54.166Z,3.33
2017-04-18T01:03:52.067Z,4.03
2017-04-18T01:04:49.986Z,2.93
2017-04-18T01:05:47.850Z,3.78
2017-04-18T01:06:45.711Z,3.20
2017-04-18T01:07:43.599Z,3.57
2017-04-18T01:08:41.485Z,3.32
2017-04-18T01:09:39.874Z,3.10
2017-04-18T01:10:37.838Z,3.30
2017-04-18T01:11:35.726Z,4.02
2017-04-18T01:12:33.615Z,3.35
2017-04-18T01:13:31.479Z,3.53
2017-04-18T01:14:29.366Z,3.67
2017-04-18T01:15:27.219Z,3.60
2017-04-18T01:16:25.137Z,4.12
2017-04-18T01:17:22.991Z,4.40
2017-04-18T01:18:20.906Z,4.50
2017-04-18T01:19:18.767Z,4.47
2017-04-18T01:20:16.626Z,4.20
2017-04-18T01:21:14.502Z,4.42
2017-04-18T01:22:12.526Z,4.55
2017-04-18T01:23:10.399Z,5.05
2017-04-18T01:24:08.284Z,4.62
2017-04-18T01:25:06.326Z,5.07
2017-04-18T01:26:04.274Z,5.67
2017-04-18T01:27:02.159Z,5.10
2017-04-18T01:28:00.070Z,4.60
2017-04-18T01:28:57.979Z,4.43
2017-04-18T01:29:55.910Z,5.28
2017-04-18T01:30:54.026Z,5.43
2017-04-18T01:31:51.893Z,5.18
2017-04-18T01:32:49.743Z,4.95
2017-04-18T01:33:47.654Z,5.27
2017-04-18T01:34:45.510Z,4.97
2017-04-18T01:35:43.362Z,5.73
2017-04-18T01:36:41.208Z,5.93
2017-04-18T01:37:39.093Z,6.00
2017-04-18T01:38:36.951Z,6.30
2017-04-18T01:39:34.886Z,6.23
2017-04-18T01:40:32.742Z,5.82
2017-04-18T01:41:30.631Z,5.42
2017-04-18T01:42:28.494Z,5.32
2017-04-18T01:43:26.353Z,5.95
2017-04-18T01:44:23.828Z,6.28
2017-04-18T01:45:21.722Z,5.87
2017-04-18T01:46:19.581Z,6.27
2017-04-18T01:47:17.411Z,6.10
2017-04-18T01:48:15.330Z,8.00
2017-04-18T01:49:13.182Z,5.63
2017-04-18T01:50:11.401Z,5.85
2017-04-18T01:51:12.239Z,6.77
2017-04-18T01:52:10.135Z,5.72
2017-04-18T01:53:07.987Z,6.00
2017-04-18T01:54:05.834Z,6.30
2017-04-18T01:55:03.709Z,6.27
2017-04-18T01:56:01.589Z,6.93
2017-04-18T01:56:59.471Z,6.25
2017-04-18T01:57:57.328Z,6.70
2017-04-18T01:58:55.679Z,6.18
2017-04-18T01:59:53.558Z,6.18
2017-04-18T02:00:51.818Z,6.18
2017-04-18T02:01:49.767Z,6.93
2017-04-18T02:02:48.843Z,6.60
2017-04-18T02:03:46.692Z,6.12
2017-04-18T02:04:44.593Z,6.85
2017-04-18T02:05:42.442Z,7.17
2017-04-18T02:06:40.290Z,6.40
2017-04-18T02:07:38.138Z,7.20
2017-04-18T02:08:36.039Z,6.55
2017-04-18T02:09:33.883Z,7.68
2017-04-18T02:10:31.718Z,6.82
2017-04-18T02:11:29.570Z,5.92
2017-04-18T02:12:27.454Z,6.40
2017-04-18T02:13:25.293Z,7.03
2017-04-18T02:14:23.175Z,7.38
2017-04-18T02:15:21.018Z,6.75
2017-04-18T02:16:18.858Z,6.60
2017-04-18T02:17:16.716Z,7.35
2017-04-18T02:18:14.873Z,6.45
2017-04-18T02:19:12.732Z,7.25
2017-04-18T02:20:10.614Z,7.67
2017-04-18T02:21:08.458Z,7.35
2017-04-18T02:22:06.286Z,7.70
2017-04-18T02:23:04.527Z,7.48
2017-04-18T02:24:02.366Z,6.53
2017-04-18T02:25:00.366Z,7.62
2017-04-18T02:25:58.322Z,7.05
2017-04-18T02:26:56.206Z,6.28
2017-04-18T02:27:54.063Z,7.22
2017-04-18T02:28:51.923Z,6.83
2017-04-18T02:29:49.785Z,7.87
2017-04-18T02:30:47.624Z,6.67
2017-04-18T02:31:45.890Z,6.75
2017-04-18T02:32:44.111Z,6.92
2017-04-18T02:33:41.967Z,6.73
2017-04-18T02:34:39.810Z,6.78
2017-04-18T02:35:37.656Z,7.20
2017-04-18T02:36:35.515Z,7.12
2017-04-18T02:37:33.440Z,7.32
2017-04-18T02:38:31.271Z,7.22
2017-04-18T02:39:29.106Z,7.77
2017-04-18T02:40:26.945Z,7.42
2017-04-18T02:41:24.768Z,6.52
2017-04-18T02:42:22.626Z,7.57
2017-04-18T02:43:20.510Z,6.02
2017-04-18T02:44:18.342Z,7.20
2017-04-18T02:45:16.178Z,6.75
2017-04-18T02:46:14.080Z,6.93
2017-04-18T02:47:11.922Z,7.68
2017-04-18T02:48:09.763Z,7.45
2017-04-18T02:49:07.649Z,7.32
2017-04-18T02:50:05.502Z,8.23
2017-04-18T02:51:03.334Z,7.92
2017-04-18T02:52:01.175Z,7.10
2017-04-18T02:52:59.411Z,8.33
2017-04-18T02:53:57.239Z,7.42
2017-04-18T02:54:55.122Z,7.67
2017-04-18T02:55:52.993Z,7.02
2017-04-18T02:56:50.838Z,8.00
2017-04-18T02:57:48.671Z,8.27
2017-04-18T02:58:46.510Z,8.17
2017-04-18T02:59:44.757Z,7.52
2017-04-18T03:00:42.629Z,6.20
2017-04-18T03:01:40.502Z,7.97
2017-04-18T03:02:38.354Z,6.68
2017-04-18T03:03:36.182Z,7.02
2017-04-18T03:04:34.217Z,7.57
2017-04-18T03:05:32.059Z,7.78
2017-04-18T03:06:29.942Z,6.67
2017-04-18T03:07:27.822Z,6.83
2017-04-18T03:08:25.662Z,6.70
2017-04-18T03:09:23.486Z,6.55
2017-04-18T03:10:21.315Z,7.00
2017-04-18T03:11:19.154Z,7.00
2017-04-18T03:12:17.051Z,6.02
2017-04-18T03:13:14.885Z,5.97
2017-04-18T03:14:12.749Z,6.10
2017-04-18T03:15:10.570Z,6.32
2017-04-18T03:16:08.391Z,6.02
2017-04-18T03:17:06.226Z,5.83
2017-04-18T03:18:04.119Z,5.78
2017-04-18T03:19:02.035Z,4.77
2017-04-18T03:19:59.863Z,5.77
2017-04-18T03:20:57.736Z,5.85
2017-04-18T03:21:55.590Z,5.32
2017-04-18T03:22:53.438Z,5.28
2017-04-18T03:23:51.345Z,5.23
2017-04-18T03:24:49.183Z,4.97
2017-04-18T03:25:47.075Z,5.10
2017-04-18T03:26:44.914Z,4.70
2017-04-18T03:27:42.758Z,4.80
2017-04-18T03:28:40.599Z,4.75
2017-04-18T03:29:38.518Z,5.98
2017-04-18T03:30:36.373Z,5.15
2017-04-18T03:31:34.211Z,5.52
2017-04-18T03:32:32.414Z,4.75
2017-04-18T03:33:30.253Z,3.77
2017-04-18T03:34:28.118Z,4.07
2017-04-18T03:35:26.018Z,3.82
2017-04-18T03:36:23.872Z,3.95
2017-04-18T03:37:21.702Z,4.20
2017-04-18T03:38:19.538Z,4.00
2017-04-18T03:39:17.459Z,4.45
2017-04-18T03:40:15.294Z,3.83
2017-04-18T03:41:13.160Z,4.13
2017-04-18T03:42:11.039Z,4.28
2017-04-18T03:43:08.914Z,3.82
2017-04-18T03:44:06.778Z,2.90
2017-04-18T03:45:04.638Z,3.40
2017-04-18T03:46:02.505Z,3.37
2017-04-18T03:47:00.382Z,3.05
2017-04-18T03:47:58.222Z,3.15
2017-04-18T03:48:55.674Z,2.90
2017-04-18T03:49:53.530Z,2.90
2017-04-18T03:50:51.401Z,2.80
2017-04-18T03:51:49.250Z,2.72
2017-04-18T03:52:47.135Z,2.70
2017-04-18T03:53:45.045Z,2.37
2017-04-18T03:54:42.885Z,2.77
2017-04-18T03:55:40.735Z,2.28
2017-04-18T03:56:38.582Z,2.62
2017-04-18T03:57:36.426Z,2.58
2017-04-18T03:58:34.310Z,2.05
2017-04-18T03:59:32.170Z,2.53
2017-04-18T04:00:30.062Z,2.47
2017-04-18T04:01:27.926Z,2.38
2017-04-18T04:02:25.776Z,2.63
2017-04-18T04:03:23.636Z,1.97
2017-04-18T04:04:21.218Z,2.02
2017-04-18T04:05:19.062Z,2.13
2017-04-18T04:06:16.909Z,2.30
2017-04-18T04:07:14.879Z,2.25
2017-04-18T04:08:12.715Z,2.50
2017-04-18T04:09:10.562Z,2.17
2017-04-18T04:10:08.086Z,2.55
2017-04-18T04:11:05.942Z,2.20
2017-04-18T04:12:03.793Z,2.77
2017-04-18T04:13:01.668Z,2.55
2017-04-18T04:13:59.534Z,2.67
2017-04-18T04:14:57.443Z,2.15
2017-04-18T04:15:55.354Z,2.40
2017-04-18T04:16:53.206Z,2.30
2017-04-18T04:17:51.051Z,2.47
2017-04-18T04:18:48.898Z,2.70
2017-04-18T04:19:46.763Z,2.22
2017-04-18T04:20:44.611Z,2.58
2017-04-18T04:21:42.519Z,2.72
2017-04-18T04:22:40.350Z,2.63
2017-04-18T04:23:38.189Z,2.43
2017-04-18T04:24:36.045Z,2.82
2017-04-18T04:25:33.870Z,3.07
2017-04-18T04:26:31.746Z,2.85
2017-04-18T04:27:29.629Z,3.23
2017-04-18T04:28:27.542Z,2.77
2017-04-18T04:29:25.398Z,2.55
2017-04-18T04:30:23.273Z,2.70
2017-04-18T04:31:21.133Z,3.07
2017-04-18T04:32:18.982Z,2.93
2017-04-18T04:33:16.879Z,3.50
2017-04-18T04:34:14.730Z,3.20
2017-04-18T04:35:12.565Z,3.30
2017-04-18T04:36:10.422Z,3.10
2017-04-18T04:37:08.259Z,3.57
2017-04-18T04:38:06.105Z,3.97
2017-04-18T04:39:04.339Z,3.68
2017-04-18T04:40:02.178Z,3.60
2017-04-18T04:41:00.029Z,3.95
2017-04-18T04:41:57.912Z,3.93
2017-04-18T04:42:55.759Z,3.87
2017-04-18T04:43:53.602Z,3.90
2017-04-18T04:44:51.530Z,4.35
2017-04-18T04:45:49.370Z,4.50
2017-04-18T04:46:47.237Z,4.43
2017-04-18T04:47:45.078Z,4.15
2017-04-18T04:48:42.920Z,4.62
2017-04-18T04:49:40.763Z,4.43
2017-04-18T04:50:38.665Z,4.30
2017-04-18T04:51:36.513Z,5.05
2017-04-18T04:52:34.362Z,5.30
2017-04-18T04:53:32.203Z,4.55
2017-04-18T04:54:30.021Z,4.65
2017-04-18T04:55:27.851Z,5.35
2017-04-18T04:56:25.721Z,4.83
2017-04-18T04:57:23.580Z,4.83
2017-04-18T04:58:21.430Z,4.47
2017-04-18T04:59:19.683Z,4.93
2017-04-18T05:00:17.902Z,5.30
2017-04-18T05:01:15.766Z,4.75
2017-04-18T05:02:13.690Z,5.95
2017-04-18T05:03:11.523Z,5.10
2017-04-18T05:04:09.356Z,4.38
2017-04-18T05:05:07.482Z,5.00
2017-04-18T05:06:05.346Z,4.83
2017-04-18T05:07:03.256Z,4.95
2017-04-18T05:08:01.195Z,4.32
2017-04-18T05:08:59.050Z,4.53
2017-04-18T05:09:56.901Z,4.50
2017-04-18T05:10:54.739Z,4.60
2017-04-18T05:11:52.579Z,4.77
2017-04-18T05:12:50.443Z,5.03
2017-04-18T05:13:48.354Z,4.87
2017-04-18T05:14:46.190Z,4.87
2017-04-18T05:15:44.073Z,4.43
2017-04-18T05:16:41.934Z,4.28
2017-04-18T05:17:40.163Z,4.62
2017-04-18T05:18:38.307Z,5.63
2017-04-18T05:19:36.183Z,5.43
2017-04-18T05:20:34.058Z,5.48
2017-04-18T05:21:31.895Z,5.05
2017-04-18T05:22:29.762Z,5.68
2017-04-18T05:23:27.662Z,5.47
2017-04-18T05:24:25.563Z,5.73
2017-04-18T05:25:23.458Z,4.98
2017-04-18T05:26:21.336Z,5.55
2017-04-18T05:27:19.171Z,5.32
2017-04-18T05:28:17.376Z,5.90
2017-04-18T05:29:15.218Z,5.97
2017-04-18T05:30:13.070Z,6.30
2017-04-18T05:31:10.939Z,5.63
2017-04-18T05:32:08.811Z,5.08
2017-04-18T05:33:06.655Z,6.65
2017-04-18T05:34:04.513Z,5.32
2017-04-18T05:35:02.383Z,4.92
2017-04-18T05:36:00.614Z,5.13
2017-04-18T05:36:58.534Z,4.85
2017-04-18T05:37:56.386Z,5.43
2017-04-18T05:38:54.242Z,5.37
2017-04-18T05:39:52.084Z,5.90
2017-04-18T05:40:50.019Z,5.28
2017-04-18T05:41:47.849Z,4.95
2017-04-18T05:42:45.739Z,5.35
2017-04-18T05:43:43.597Z,5.18
2017-04-18T05:44:41.472Z,5.97
2017-04-18T05:45:39.326Z,6.50
2017-04-18T05:46:37.186Z,5.87
2017-04-18T05:47:35.054Z,4.77
2017-04-18T05:48:33.138Z,6.63
2017-04-18T05:49:31.209Z,5.30
2017-04-18T05:50:29.097Z,5.05
2017-04-18T05:51:26.953Z,5.40
2017-04-18T05:52:25.218Z,5.63
2017-04-18T05:53:23.079Z,5.67
2017-04-18T05:54:20.959Z,5.70
2017-04-18T05:55:18.919Z,5.42
2017-04-18T05:56:16.770Z,4.95
2017-04-18T05:57:14.626Z,4.93
2017-04-18T05:58:12.656Z,4.82
2017-04-18T05:59:10.647Z,4.63
2017-04-18T06:00:08.588Z,5.40
2017-04-18T06:01:06.469Z,5.30
2017-04-18T06:02:03.909Z,4.45
2017-04-18T06:03:02.128Z,4.00
2017-04-18T06:03:59.958Z,4.60
2017-04-18T06:04:57.798Z,4.82
2017-04-18T06:05:55.744Z,5.40
2017-04-18T06:06:53.601Z,5.22
2017-04-18T06:07:51.447Z,4.63
2017-04-18T06:08:49.267Z,4.47
2017-04-18T06:09:47.106Z,5.32
2017-04-18T06:10:44.961Z,4.65
2017-04-18T06:11:42.866Z,4.65
2017-04-18T06:12:40.708Z,4.23
2017-04-18T06:13:38.548Z,4.57
2017-04-18T06:14:36.395Z,5.28
2017-04-18T06:15:34.226Z,4.43
2017-04-18T06:16:32.070Z,4.18
2017-04-18T06:17:29.978Z,4.43
2017-04-18T06:18:27.806Z,4.85
2017-04-18T06:19:25.740Z,4.62
2017-04-18T06:20:23.614Z,4.75
2017-04-18T06:21:21.618Z,4.82
2017-04-18T06:22:19.478Z,4.70
2017-04-18T06:23:17.364Z,4.42
2017-04-18T06:24:15.247Z,5.10
2017-04-18T06:25:13.123Z,5.05
2017-04-18T06:26:10.992Z,4.23
2017-04-18T06:27:08.858Z,4.75
2017-04-18T06:28:06.705Z,4.57
2017-04-18T06:29:04.589Z,4.35
2017-04-18T06:30:02.447Z,4.57
2017-04-18T06:31:00.790Z,5.33
2017-04-18T06:31:58.634Z,4.20
2017-04-18T06:32:56.501Z,5.13
2017-04-18T06:33:54.350Z,4.22
2017-04-18T06:34:52.236Z,4.73
2017-04-18T06:35:50.101Z,4.50
2017-04-18T06:36:47.982Z,3.95
2017-04-18T06:37:46.425Z,4.35
2017-04-18T06:38:44.422Z,4.55
2017-04-18T06:39:42.278Z,3.97
2017-04-18T06:40:40.264Z,4.17
2017-04-18T06:41:38.146Z,4.25
2017-04-18T06:42:36.564Z,4.53
2017-04-18T06:43:35.261Z,4.47
2017-04-18T06:44:33.213Z,4.17
2017-04-18T06:45:43.265Z,4.30
2017-04-18T06:46:41.474Z,4.63
2017-04-18T06:47:39.305Z,4.10
2017-04-18T06:48:37.167Z,4.05
2017-04-18T06:49:35.374Z,4.23
2017-04-18T06:50:33.189Z,4.02
2017-04-18T06:51:31.077Z,3.62
2017-04-18T06:52:28.895Z,4.03
2017-04-18T06:53:26.745Z,3.80
2017-04-18T06:54:24.601Z,4.52
2017-04-18T06:55:22.794Z,4.22
2017-04-18T06:56:20.226Z,3.43
2017-04-18T06:57:18.106Z,4.00
2017-04-18T06:58:15.949Z,4.22
2017-04-18T06:59:13.779Z,3.77
2017-04-18T07:00:11.627Z,3.63
2017-04-18T07:01:09.489Z,3.82
2017-04-18T07:02:08.805Z,3.50
2017-04-18T07:03:11.646Z,3.62
2017-04-18T07:04:09.474Z,4.52
2017-04-18T07:05:07.293Z,3.63
2017-04-18T07:06:05.110Z,3.80
2017-04-18T07:07:02.923Z,3.33
2017-04-18T07:08:00.742Z,4.43
2017-04-18T07:08:58.614Z,4.28
2017-04-18T07:09:56.470Z,4.03
2017-04-18T07:10:54.301Z,4.22
2017-04-18T07:11:52.114Z,4.23
2017-04-18T07:12:49.938Z,3.32
2017-04-18T07:13:47.757Z,3.50
2017-04-18T07:14:45.625Z,3.83
2017-04-18T07:15:43.457Z,3.78
2017-04-18T07:16:41.293Z,3.65
2017-04-18T07:17:39.174Z,3.40
2017-04-18T07:18:37.036Z,4.00
2017-04-18T07:19:34.961Z,4.07
2017-04-18T07:20:32.854Z,3.33
2017-04-18T07:21:31.046Z,3.18
2017-04-18T07:22:28.881Z,2.97
2017-04-18T07:23:26.701Z,3.08
2017-04-18T07:24:24.522Z,3.95
2017-04-18T07:25:21.949Z,3.37
2017-04-18T07:26:19.817Z,3.58
2017-04-18T07:27:17.638Z,3.30
2017-04-18T07:28:15.463Z,2.88
2017-04-18T07:29:13.286Z,3.07
2017-04-18T07:30:11.486Z,3.52
2017-04-18T07:31:09.318Z,3.03
2017-04-18T07:32:07.200Z,3.62
2017-04-18T07:33:05.032Z,3.12
2017-04-18T07:34:02.892Z,3.87
2017-04-18T07:35:00.836Z,3.40
2017-04-18T07:35:58.649Z,3.22
2017-04-18T07:36:56.470Z,3.52
2017-04-18T07:37:54.326Z,3.82
2017-04-18T07:38:52.138Z,3.43
2017-04-18T07:39:49.946Z,3.45
2017-04-18T07:40:47.798Z,4.33
2017-04-18T07:41:45.645Z,4.05
2017-04-18T07:42:43.471Z,3.40
2017-04-18T07:43:41.363Z,3.90
2017-04-18T07:44:41.899Z,3.90
2017-04-18T07:45:40.044Z,3.78
2017-04-18T07:46:37.910Z,4.20
2017-04-18T07:47:35.766Z,3.97
2017-04-18T07:48:33.743Z,4.08
2017-04-18T07:49:32.177Z,3.97
2017-04-18T07:50:29.977Z,3.62
2017-04-18T07:51:27.805Z,3.90
2017-04-18T07:52:25.621Z,3.25
2017-04-18T07:53:23.442Z,4.02
2017-04-18T07:54:21.273Z,4.33
2017-04-18T07:55:19.141Z,4.13
2017-04-18T07:56:16.962Z,4.15
2017-04-18T07:57:15.171Z,4.37
2017-04-18T07:58:13.009Z,4.10
2017-04-18T07:59:10.430Z,4.13
2017-04-18T08:00:08.278Z,3.85
2017-04-18T08:01:06.139Z,4.38
2017-04-18T08:02:04.005Z,4.45
2017-04-18T08:03:01.814Z,4.75
2017-04-18T08:03:59.690Z,4.15
2017-04-18T08:04:57.515Z,6.52
2017-04-18T08:05:55.333Z,3.95
2017-04-18T08:06:53.189Z,6.77
2017-04-18T08:07:51.067Z,3.95
2017-04-18T08:08:48.879Z,6.32
2017-04-18T08:09:46.722Z,5.35
2017-04-18T08:10:44.538Z,4.72
2017-04-18T08:11:41.983Z,11.70
2017-04-18T08:12:39.889Z,6.27
2017-04-18T08:13:37.711Z,7.50
2017-04-18T08:14:35.525Z,5.97
2017-04-18T08:15:33.341Z,8.52
2017-04-18T08:16:31.157Z,7.45
2017-04-18T08:17:28.982Z,4.57
2017-04-18T08:18:26.863Z,6.47
2017-04-18T08:19:24.665Z,3.95
2017-04-18T08:20:22.474Z,4.83
2017-04-18T08:21:20.651Z,4.13
2017-04-18T08:22:18.454Z,4.42
2017-04-18T08:23:16.269Z,3.63
2017-04-18T08:24:14.131Z,4.32
2017-04-18T08:25:11.942Z,4.25
2017-04-18T08:26:09.753Z,4.48
2017-04-18T08:27:07.579Z,6.47
2017-04-18T08:28:05.401Z,4.27
2017-04-18T08:29:03.226Z,4.27
2017-04-18T08:30:01.085Z,3.72
2017-04-18T08:30:58.918Z,4.30
2017-04-18T08:31:56.775Z,3.67
2017-04-18T08:32:54.589Z,3.27
2017-04-18T08:33:52.402Z,4.32
2017-04-18T08:34:50.217Z,5.53
2017-04-18T08:35:48.074Z,3.10
2017-04-18T08:36:45.890Z,4.18
2017-04-18T08:37:43.724Z,3.88
2017-04-18T08:38:41.172Z,3.00
2017-04-18T08:39:38.989Z,3.67
2017-04-18T08:40:36.798Z,3.08
2017-04-18T08:41:34.672Z,4.23
2017-04-18T08:42:32.525Z,3.22
2017-04-18T08:43:30.350Z,5.42
2017-04-18T08:44:28.153Z,3.33
2017-04-18T08:45:25.602Z,3.57
2017-04-18T08:46:23.422Z,2.78
2017-04-18T08:47:21.282Z,2.90
2017-04-18T08:48:19.102Z,2.78
2017-04-18T08:49:16.976Z,3.03
2017-04-18T08:50:14.799Z,3.40
2017-04-18T08:51:12.993Z,3.25
2017-04-18T08:52:11.193Z,3.23
2017-04-18T08:53:09.061Z,3.15
2017-04-18T08:54:06.882Z,3.12
2017-04-18T08:55:04.714Z,2.77
2017-04-18T08:56:02.569Z,3.38
2017-04-18T08:57:00.786Z,3.47
2017-04-18T08:57:58.601Z,3.95
2017-04-18T08:58:56.472Z,3.28
2017-04-18T08:59:54.302Z,3.40
2017-04-18T09:00:52.142Z,3.27
2017-04-18T09:01:49.573Z,3.72
2017-04-18T09:02:47.396Z,2.95
2017-04-18T09:03:45.265Z,3.78
2017-04-18T09:04:43.790Z,3.23
2017-04-18T09:05:41.626Z,4.10
2017-04-18T09:06:39.456Z,3.43
2017-04-18T09:07:36.878Z,3.08
2017-04-18T09:08:34.733Z,3.47
2017-04-18T09:09:32.563Z,2.98
2017-04-18T09:10:30.458Z,3.45
2017-04-18T09:11:28.281Z,3.70
2017-04-18T09:12:26.147Z,3.00
2017-04-18T09:13:23.971Z,3.10
2017-04-18T09:14:21.815Z,3.07
2017-04-18T09:15:20.013Z,3.10
2017-04-18T09:16:17.882Z,3.67
2017-04-18T09:17:15.734Z,3.70
2017-04-18T09:18:13.550Z,3.23
2017-04-18T09:19:11.383Z,3.50
2017-04-18T09:20:09.229Z,3.60
2017-04-18T09:21:07.085Z,3.65
2017-04-18T09:22:04.959Z,3.68
2017-04-18T09:23:02.809Z,3.23
2017-04-18T09:24:00.616Z,3.17
2017-04-18T09:24:58.429Z,2.88
2017-04-18T09:25:56.255Z,3.90
2017-04-18T09:26:54.065Z,3.17
2017-04-18T09:27:51.926Z,3.17
2017-04-18T09:28:49.737Z,2.92
2017-04-18T09:29:47.553Z,2.90
2017-04-18T09:30:44.964Z,2.83
2017-04-18T09:31:42.798Z,3.50
2017-04-18T09:32:40.606Z,2.40
2017-04-18T09:33:38.469Z,2.80
2017-04-18T09:34:36.656Z,3.02
2017-04-18T09:35:34.480Z,2.95
2017-04-18T09:36:32.662Z,3.57
2017-04-18T09:37:30.528Z,2.92
2017-04-18T09:38:28.337Z,2.83
2017-04-18T09:39:26.190Z,3.08
2017-04-18T09:40:24.187Z,3.00
2017-04-18T09:41:22.001Z,3.07
2017-04-18T09:42:19.821Z,2.68
2017-04-18T09:43:17.633Z,2.85
2017-04-18T09:44:15.438Z,4.48
2017-04-18T09:45:13.318Z,3.57
2017-04-18T09:46:11.855Z,3.27
2017-04-18T09:47:09.657Z,3.70
2017-04-18T09:48:07.569Z,3.90
2017-04-18T09:49:05.388Z,2.83
2017-04-18T09:50:03.211Z,3.43
2017-04-18T09:51:01.069Z,3.68
2017-04-18T09:51:58.883Z,3.02
2017-04-18T09:52:56.699Z,3.17
2017-04-18T09:53:54.533Z,2.55
2017-04-18T09:54:52.354Z,3.57
2017-04-18T09:55:50.197Z,2.95
2017-04-18T09:56:48.058Z,2.98
2017-04-18T09:57:45.875Z,3.10
2017-04-18T09:58:43.712Z,2.62
2017-04-18T09:59:41.918Z,3.60
2017-04-18T10:00:39.730Z,2.62
2017-04-18T10:01:37.565Z,2.27
2017-04-18T10:02:35.405Z,2.52
2017-04-18T10:03:33.255Z,2.97
2017-04-18T10:04:31.114Z,2.83
2017-04-18T10:05:28.922Z,2.33
2017-04-18T10:06:26.737Z,1.97
2017-04-18T10:07:24.553Z,2.52
2017-04-18T10:08:22.431Z,2.05
2017-04-18T10:09:20.238Z,2.37
2017-04-18T10:10:18.081Z,2.32
2017-04-18T10:11:16.267Z,1.92
2017-04-18T10:12:14.086Z,1.65
2017-04-18T10:13:11.887Z,1.90
2017-04-18T10:14:09.753Z,1.93
2017-04-18T10:15:07.567Z,2.00
2017-04-18T10:16:05.404Z,2.20
2017-04-18T10:17:03.604Z,1.63
2017-04-18T10:18:01.014Z,1.88
2017-04-18T10:18:58.823Z,1.17
2017-04-18T10:19:56.682Z,1.80
2017-04-18T10:20:54.494Z,1.83
2017-04-18T10:21:52.310Z,1.53
2017-04-18T10:22:50.118Z,1.80
2017-04-18T10:23:47.922Z,1.58
2017-04-18T10:24:45.769Z,1.62
2017-04-18T10:25:43.621Z,1.43
2017-04-18T10:26:41.426Z,1.85
2017-04-18T10:27:39.249Z,1.68
2017-04-18T10:28:37.062Z,1.52
2017-04-18T10:29:34.874Z,1.45
2017-04-18T10:30:32.715Z,1.78
2017-04-18T10:31:30.570Z,1.58
2017-04-18T10:32:28.434Z,1.20
2017-04-18T10:33:26.261Z,1.10
2017-04-18T10:34:24.071Z,1.82
2017-04-18T10:35:21.904Z,1.30
2017-04-18T10:36:19.710Z,1.05
2017-04-18T10:37:17.594Z,1.50
2017-04-18T10:38:15.406Z,1.38
2017-04-18T10:39:13.250Z,1.70
2017-04-18T10:40:11.450Z,1.95
2017-04-18T10:41:09.276Z,1.83
2017-04-18T10:42:07.086Z,2.33
2017-04-18T10:43:04.974Z,2.62
2017-04-18T10:44:02.818Z,1.87
2017-04-18T10:45:00.623Z,2.05
2017-04-18T10:45:59.133Z,2.95
2017-04-18T10:46:56.942Z,2.38
2017-04-18T10:47:55.182Z,2.78
2017-04-18T10:48:53.027Z,1.95
2017-04-18T10:49:50.834Z,2.47
2017-04-18T10:50:48.649Z,2.28
2017-04-18T10:51:46.537Z,2.37
2017-04-18T10:52:44.382Z,2.47
2017-04-18T10:53:42.190Z,2.15
2017-04-18T10:54:40.041Z,2.32
2017-04-18T10:55:37.869Z,2.77
2017-04-18T10:56:35.686Z,2.27
2017-04-18T10:57:33.514Z,2.48
2017-04-18T10:58:31.347Z,2.25
2017-04-18T10:59:29.170Z,2.87
2017-04-18T11:00:27.013Z,2.27
2017-04-18T11:01:24.830Z,1.90
2017-04-18T11:02:22.633Z,2.22
2017-04-18T11:03:20.446Z,2.37
2017-04-18T11:04:18.263Z,2.35
2017-04-18T11:05:16.066Z,1.87
2017-04-18T11:06:13.954Z,1.65
2017-04-18T11:07:11.761Z,2.00
2017-04-18T11:08:09.574Z,1.82
2017-04-18T11:09:07.390Z,1.00
2017-04-18T11:10:05.207Z,1.15
2017-04-18T11:11:03.012Z,1.12
2017-04-18T11:12:00.906Z,0.83
2017-04-18T11:12:58.710Z,0.97
2017-04-18T11:13:56.533Z,1.13
2017-04-18T11:14:53.950Z,0.92
2017-04-18T11:15:51.757Z,0.93
2017-04-18T11:16:49.590Z,1.05
2017-04-18T11:17:47.462Z,1.23
2017-04-18T11:18:45.269Z,0.92
2017-04-18T11:19:43.080Z,0.87
2017-04-18T11:20:40.881Z,1.05
2017-04-18T11:21:38.686Z,1.23
2017-04-18T11:22:36.553Z,1.28
2017-04-18T11:23:34.742Z,1.15
2017-04-18T11:24:32.545Z,1.12
2017-04-18T11:25:30.395Z,1.52
2017-04-18T11:26:28.210Z,1.32
2017-04-18T11:27:26.112Z,1.40
2017-04-18T11:28:23.920Z,1.10
2017-04-18T11:29:21.854Z,1.28
2017-04-18T11:30:19.677Z,1.38
2017-04-18T11:31:17.477Z,1.15
2017-04-18T11:32:15.290Z,1.12
2017-04-18T11:33:13.501Z,1.23
2017-04-18T11:34:11.349Z,1.22
2017-04-18T11:35:09.210Z,1.08
2017-04-18T11:36:07.033Z,1.20
2017-04-18T11:37:04.849Z,1.20
2017-04-18T11:38:02.678Z,1.30
2017-04-18T11:39:00.494Z,0.83
2017-04-18T11:39:58.317Z,0.80
2017-04-18T11:40:56.169Z,0.88
2017-04-18T11:41:53.977Z,1.05
2017-04-18T11:42:51.793Z,0.82
2017-04-18T11:43:49.679Z,0.90
2017-04-18T11:44:47.865Z,0.62
2017-04-18T11:45:45.701Z,0.58
2017-04-18T11:46:43.602Z,0.77
2017-04-18T11:47:41.107Z,0.58
2017-04-18T11:48:38.949Z,0.75
2017-04-18T11:49:36.765Z,0.68
2017-04-18T11:50:34.581Z,0.80
2017-04-18T11:51:32.409Z,0.80
2017-04-18T11:52:30.270Z,0.80
2017-04-18T11:53:28.088Z,1.05
2017-04-18T11:54:25.522Z,1.03
2017-04-18T11:55:23.352Z,1.15
2017-04-18T11:56:21.187Z,0.75
2017-04-18T11:57:19.003Z,0.90
2017-04-18T11:58:16.900Z,1.07
2017-04-18T11:59:14.718Z,1.25
2017-04-18T12:00:12.585Z,1.32
2017-04-18T12:01:10.443Z,1.58
2017-04-18T12:02:08.253Z,1.40
2017-04-18T12:03:06.426Z,1.55
2017-04-18T12:04:04.281Z,1.57
2017-04-18T12:05:02.085Z,1.52
2017-04-18T12:05:59.887Z,1.25
2017-04-18T12:06:57.690Z,1.07
2017-04-18T12:07:55.504Z,1.43
2017-04-18T12:08:53.305Z,0.98
2017-04-18T12:09:51.194Z,1.10
2017-04-18T12:10:48.998Z,1.53
2017-04-18T12:11:46.818Z,0.90
2017-04-18T12:12:44.634Z,1.10
2017-04-18T12:13:42.433Z,1.47
2017-04-18T12:14:40.242Z,1.28
2017-04-18T12:15:38.129Z,1.10
2017-04-18T12:16:35.623Z,1.20
2017-04-18T12:17:33.601Z,1.47
2017-04-18T12:18:31.430Z,1.10
2017-04-18T12:19:28.889Z,1.20
2017-04-18T12:20:26.729Z,1.27
2017-04-18T12:21:24.601Z,1.27
2017-04-18T12:22:22.426Z,1.08
2017-04-18T12:23:20.270Z,1.15
2017-04-18T12:24:18.087Z,1.23
2017-04-18T12:25:15.913Z,1.20
2017-04-18T12:26:13.742Z,1.30
2017-04-18T12:27:11.651Z,1.10
2017-04-18T12:28:09.521Z,1.20
2017-04-18T12:29:07.345Z,1.17
2017-04-18T12:30:05.161Z,0.92
2017-04-18T12:31:03.094Z,1.18
2017-04-18T12:32:00.561Z,0.90
2017-04-18T12:32:58.418Z,1.10
2017-04-18T12:33:56.242Z,0.83
2017-04-18T12:34:54.070Z,1.12
2017-04-18T12:35:51.913Z,0.97
2017-04-18T12:36:49.734Z,1.28
2017-04-18T12:37:47.553Z,0.78
2017-04-18T12:38:45.166Z,1.02
2017-04-18T12:39:42.988Z,0.80
2017-04-18T12:40:40.806Z,1.05
2017-04-18T12:41:38.622Z,0.80
2017-04-18T12:42:36.437Z,1.32
2017-04-18T12:43:34.258Z,1.35
2017-04-18T12:44:32.135Z,1.10
2017-04-18T12:45:29.981Z,0.73
2017-04-18T12:46:27.838Z,0.83
2017-04-18T12:47:25.658Z,0.93
2017-04-18T12:48:23.474Z,0.78
2017-04-18T12:49:21.389Z,0.95
2017-04-18T12:50:18.878Z,0.83